createdAt,value
2017-07-26T00:02:03.579Z,16.20
2017-07-26T00:04:31.193Z,16.80
2017-07-26T00:06:58.733Z,16.93
2017-07-26T00:09:26.290Z,16.93
2017-07-26T00:11:54.564Z,16.40
2017-07-26T00:14:22.109Z,15.77
2017-07-26T00:16:50.381Z,16.00
2017-07-26T00:19:17.894Z,13.90
2017-07-26T00:21:45.409Z,15.03
2017-07-26T00:24:12.951Z,15.87
2017-07-26T00:26:40.806Z,14.20
2017-07-26T00:29:08.329Z,15.33
2017-07-26T00:31:35.878Z,15.47
2017-07-26T00:34:03.425Z,14.97
2017-07-26T00:36:30.982Z,14.43
2017-07-26T00:38:59.251Z,12.93
2017-07-26T00:41:27.695Z,12.23
2017-07-26T00:43:55.251Z,11.43
2017-07-26T00:46:22.746Z,10.80
2017-07-26T00:48:51.037Z,10.10
2017-07-26T00:51:19.522Z,7.70
2017-07-26T00:53:47.046Z,8.33
2017-07-26T00:56:14.645Z,7.07
2017-07-26T00:58:42.166Z,6.97
2017-07-26T01:01:09.779Z,6.10
2017-07-26T01:03:37.290Z,6.63
2017-07-26T01:06:04.819Z,7.17
2017-07-26T01:08:32.347Z,7.00
2017-07-26T01:10:59.844Z,7.27
2017-07-26T01:13:27.371Z,5.60
2017-07-26T01:15:54.890Z,5.97
2017-07-26T01:18:22.373Z,5.80
2017-07-26T01:20:49.915Z,5.70
2017-07-26T01:23:18.191Z,5.47
2017-07-26T01:25:46.478Z,5.00
2017-07-26T01:28:14.762Z,4.60
2017-07-26T01:30:42.259Z,4.20
2017-07-26T01:33:09.771Z,4.10
2017-07-26T01:35:38.047Z,3.87
2017-07-26T01:38:06.370Z,3.83
2017-07-26T01:40:33.875Z,4.07
2017-07-26T01:43:02.128Z,3.10
2017-07-26T01:45:29.747Z,3.10
2017-07-26T01:47:57.224Z,3.43
2017-07-26T01:50:24.761Z,3.20
2017-07-26T01:52:52.254Z,3.17
2017-07-26T01:55:19.762Z,2.90
2017-07-26T01:57:48.029Z,3.47
2017-07-26T02:00:16.287Z,2.83
2017-07-26T02:02:43.819Z,2.80
2017-07-26T02:05:11.332Z,3.20
2017-07-26T02:07:39.601Z,2.87
2017-07-26T02:10:07.919Z,2.77
2017-07-26T02:12:35.458Z,2.80
2017-07-26T02:15:03.245Z,2.10
2017-07-26T02:17:30.763Z,2.73
2017-07-26T02:19:59.039Z,2.27
2017-07-26T02:22:27.345Z,2.00
2017-07-26T02:24:54.850Z,1.93
2017-07-26T02:27:22.401Z,2.20
2017-07-26T02:29:49.908Z,2.30
2017-07-26T02:32:17.405Z,1.67
2017-07-26T02:34:44.907Z,1.80
2017-07-26T02:37:13.226Z,1.70
2017-07-26T02:39:40.716Z,1.33
2017-07-26T02:42:08.244Z,1.40
2017-07-26T02:44:35.787Z,1.77
2017-07-26T02:47:03.294Z,1.37
2017-07-26T02:49:30.808Z,1.53
2017-07-26T02:51:58.322Z,1.53
2017-07-26T02:54:25.825Z,1.10
2017-07-26T02:56:53.400Z,1.57
2017-07-26T02:59:20.897Z,1.20
2017-07-26T03:01:48.388Z,1.70
2017-07-26T03:04:16.693Z,1.17
2017-07-26T03:06:44.198Z,1.53
2017-07-26T03:09:11.708Z,1.70
2017-07-26T03:11:39.270Z,1.50
2017-07-26T03:14:06.765Z,1.20
2017-07-26T03:16:34.311Z,1.97
2017-07-26T03:19:01.829Z,1.60
2017-07-26T03:21:29.397Z,1.57
2017-07-26T03:23:56.916Z,1.53
2017-07-26T03:26:24.428Z,1.43
2017-07-26T03:28:51.930Z,1.30
2017-07-26T03:31:19.454Z,1.40
2017-07-26T03:33:46.952Z,1.37
2017-07-26T03:36:14.430Z,2.00
2017-07-26T03:38:42.716Z,1.53
2017-07-26T03:41:10.217Z,2.00
2017-07-26T03:43:37.695Z,1.80
2017-07-26T03:46:05.211Z,1.60
2017-07-26T03:48:32.710Z,1.03
2017-07-26T03:51:00.322Z,1.60
2017-07-26T03:53:27.866Z,1.23
2017-07-26T03:55:55.437Z,1.30
2017-07-26T03:58:22.939Z,1.47
2017-07-26T04:00:50.444Z,1.27
2017-07-26T04:03:17.974Z,1.33
2017-07-26T04:05:45.496Z,2.17
2017-07-26T04:08:13.018Z,1.80
2017-07-26T04:10:41.280Z,2.17
2017-07-26T04:13:09.594Z,1.53
2017-07-26T04:15:37.087Z,1.70
2017-07-26T04:18:04.626Z,1.63
2017-07-26T04:20:32.176Z,1.30
2017-07-26T04:22:59.750Z,1.57
2017-07-26T04:25:27.258Z,1.47
2017-07-26T04:27:55.552Z,1.57
2017-07-26T04:30:23.052Z,1.30
2017-07-26T04:32:50.587Z,1.43
2017-07-26T04:35:18.080Z,1.40
2017-07-26T04:37:45.585Z,1.30
2017-07-26T04:40:13.862Z,1.47
2017-07-26T04:42:41.409Z,1.30
2017-07-26T04:45:09.675Z,1.20
2017-07-26T04:47:37.962Z,1.17
2017-07-26T04:50:06.262Z,1.20
2017-07-26T04:52:33.752Z,1.30
2017-07-26T04:55:01.243Z,1.40
2017-07-26T04:57:28.840Z,1.40
2017-07-26T04:59:56.358Z,1.10
2017-07-26T05:02:23.869Z,1.50
2017-07-26T05:04:51.522Z,1.10
2017-07-26T05:07:19.032Z,1.20
2017-07-26T05:09:46.532Z,1.33
2017-07-26T05:12:14.828Z,1.67
2017-07-26T05:14:42.329Z,1.33
2017-07-26T05:17:09.877Z,1.23
2017-07-26T05:19:37.383Z,1.10
2017-07-26T05:22:04.918Z,1.33
2017-07-26T05:24:32.847Z,1.40
2017-07-26T05:27:00.386Z,1.33
2017-07-26T05:29:27.874Z,1.10
2017-07-26T05:31:55.375Z,1.33
2017-07-26T05:34:23.660Z,1.40
2017-07-26T05:36:51.949Z,1.20
2017-07-26T05:39:19.430Z,1.33
2017-07-26T05:41:46.940Z,1.00
2017-07-26T05:44:14.456Z,1.10
2017-07-26T05:46:41.937Z,1.00
2017-07-26T05:49:09.431Z,1.40
2017-07-26T05:51:37.856Z,0.87
2017-07-26T05:54:05.335Z,0.90
2017-07-26T05:56:32.858Z,0.80
2017-07-26T05:59:00.357Z,0.80
2017-07-26T06:01:27.857Z,0.90
2017-07-26T06:03:55.445Z,1.13
2017-07-26T06:06:22.971Z,0.80
2017-07-26T06:08:50.480Z,0.77
2017-07-26T06:11:17.978Z,0.83
2017-07-26T06:13:46.252Z,0.70
2017-07-26T06:16:14.566Z,0.90
2017-07-26T06:18:42.077Z,0.60
2017-07-26T06:21:10.337Z,0.80
2017-07-26T06:23:37.975Z,0.70
2017-07-26T06:26:05.467Z,0.90
2017-07-26T06:28:33.066Z,0.70
2017-07-26T06:31:00.553Z,0.70
2017-07-26T06:33:28.066Z,0.90
2017-07-26T06:35:55.573Z,0.60
2017-07-26T06:38:23.086Z,0.90
2017-07-26T06:40:51.453Z,0.70
2017-07-26T06:43:19.703Z,0.80
2017-07-26T06:45:47.231Z,0.83
2017-07-26T06:48:14.760Z,0.80
2017-07-26T06:50:43.033Z,0.77
2017-07-26T06:53:11.300Z,0.93
2017-07-26T06:55:39.572Z,0.90
2017-07-26T06:58:07.060Z,1.00
2017-07-26T07:00:34.569Z,0.73
2017-07-26T07:03:02.095Z,1.17
2017-07-26T07:05:29.605Z,0.90
2017-07-26T07:07:57.113Z,1.00
2017-07-26T07:10:24.605Z,1.43
2017-07-26T07:12:52.132Z,0.90
2017-07-26T07:15:19.617Z,0.70
2017-07-26T07:17:47.244Z,1.13
2017-07-26T07:20:14.788Z,1.10
2017-07-26T07:22:42.282Z,0.80
2017-07-26T07:25:09.783Z,0.70
2017-07-26T07:27:37.315Z,1.17
2017-07-26T07:30:04.801Z,0.80
2017-07-26T07:32:32.305Z,1.00
2017-07-26T07:34:59.850Z,0.83
2017-07-26T07:37:27.362Z,0.70
2017-07-26T07:39:54.870Z,0.70
2017-07-26T07:42:22.400Z,1.60
2017-07-26T07:44:50.661Z,1.00
2017-07-26T07:47:18.260Z,0.80
2017-07-26T07:49:45.767Z,0.90
2017-07-26T07:52:14.046Z,0.70
2017-07-26T07:54:41.597Z,0.60
2017-07-26T07:57:09.102Z,1.27
2017-07-26T07:59:36.633Z,0.90
2017-07-26T08:02:04.136Z,0.70
2017-07-26T08:04:31.636Z,0.60
2017-07-26T08:06:59.160Z,0.70
2017-07-26T08:09:26.659Z,0.70
2017-07-26T08:11:54.193Z,0.70
2017-07-26T08:14:21.708Z,0.60
2017-07-26T08:16:49.967Z,0.90
2017-07-26T08:19:17.464Z,0.67
2017-07-26T08:21:44.977Z,0.70
2017-07-26T08:24:12.475Z,0.70
2017-07-26T08:26:39.965Z,0.60
2017-07-26T08:29:07.505Z,0.57
2017-07-26T08:31:35.012Z,0.57
2017-07-26T08:34:02.548Z,0.60
2017-07-26T08:36:30.058Z,0.40
2017-07-26T08:38:59.150Z,0.50
2017-07-26T08:41:27.435Z,0.57
2017-07-26T08:43:54.943Z,0.50
2017-07-26T08:46:22.440Z,0.60
2017-07-26T08:48:50.712Z,0.50
2017-07-26T08:51:18.196Z,0.40
2017-07-26T08:53:45.781Z,0.60
2017-07-26T08:56:13.306Z,1.00
2017-07-26T08:58:40.814Z,0.50
2017-07-26T09:01:08.342Z,0.60
2017-07-26T09:03:35.866Z,0.60
2017-07-26T09:06:04.245Z,0.63
2017-07-26T09:08:32.527Z,0.50
2017-07-26T09:11:00.836Z,0.60
2017-07-26T09:13:28.327Z,0.80
2017-07-26T09:15:55.862Z,0.60
2017-07-26T09:18:23.398Z,0.60
2017-07-26T09:20:51.667Z,0.90
2017-07-26T09:23:19.937Z,0.70
2017-07-26T09:25:48.235Z,0.50
2017-07-26T09:28:15.811Z,0.60
2017-07-26T09:30:43.361Z,0.73
2017-07-26T09:33:10.938Z,0.60
2017-07-26T09:35:38.437Z,0.60
2017-07-26T09:38:05.943Z,0.60
2017-07-26T09:40:33.455Z,0.50
2017-07-26T09:43:01.802Z,0.60
2017-07-26T09:45:29.352Z,0.50
2017-07-26T09:47:56.849Z,0.50
2017-07-26T09:50:24.351Z,0.50
2017-07-26T09:52:51.880Z,1.20
2017-07-26T09:55:19.463Z,0.93
2017-07-26T09:57:47.129Z,0.90
2017-07-26T10:00:14.653Z,0.77
2017-07-26T10:02:42.138Z,1.00
2017-07-26T10:05:10.419Z,1.70
2017-07-26T10:07:38.692Z,1.50
2017-07-26T10:10:06.961Z,1.90
2017-07-26T10:12:34.470Z,1.70
2017-07-26T10:15:02.003Z,1.50
2017-07-26T10:17:29.558Z,1.20
2017-07-26T10:19:57.102Z,1.50
2017-07-26T10:22:24.695Z,1.17
2017-07-26T10:24:52.199Z,1.33
2017-07-26T10:27:19.713Z,1.57
2017-07-26T10:29:47.217Z,2.40
2017-07-26T10:32:15.684Z,2.00
2017-07-26T10:34:43.223Z,2.27
2017-07-26T10:37:10.947Z,2.73
2017-07-26T10:39:38.554Z,2.00
2017-07-26T10:42:06.069Z,3.00
2017-07-26T10:44:33.625Z,2.60
2017-07-26T10:47:01.152Z,2.53
2017-07-26T10:49:28.691Z,3.03
2017-07-26T10:51:56.206Z,2.80
2017-07-26T10:54:24.543Z,3.17
2017-07-26T10:56:52.130Z,3.50
2017-07-26T10:59:20.409Z,4.50
2017-07-26T11:01:48.702Z,5.80
2017-07-26T11:04:16.249Z,5.93
2017-07-26T11:06:44.533Z,6.57
2017-07-26T11:09:13.012Z,6.90
2017-07-26T11:11:41.332Z,7.37
2017-07-26T11:14:08.930Z,5.50
2017-07-26T11:16:36.461Z,6.20
2017-07-26T11:19:04.015Z,6.20
2017-07-26T11:21:31.523Z,5.40
2017-07-26T11:26:34.006Z,5.63
2017-07-26T11:29:01.519Z,6.50
2017-07-26T11:31:29.025Z,5.67
2017-07-26T11:33:56.551Z,6.17
2017-07-26T11:36:24.182Z,5.63
2017-07-26T11:38:51.709Z,7.00
2017-07-26T11:41:19.257Z,5.80
2017-07-26T11:43:46.798Z,6.33
2017-07-26T11:46:14.312Z,7.50
2017-07-26T11:48:42.071Z,6.07
2017-07-26T11:51:10.335Z,6.90
2017-07-26T11:53:38.599Z,6.23
2017-07-26T11:56:06.113Z,5.50
2017-07-26T11:58:33.625Z,5.50
2017-07-26T12:01:01.925Z,5.10
2017-07-26T12:03:29.463Z,5.17
2017-07-26T12:05:57.798Z,4.90
2017-07-26T12:08:25.283Z,5.47
2017-07-26T12:10:52.793Z,5.20
2017-07-26T12:13:20.329Z,5.80
2017-07-26T12:15:48.621Z,4.87
2017-07-26T12:18:16.392Z,4.60
2017-07-26T12:20:43.931Z,4.77
2017-07-26T12:23:12.218Z,4.50
2017-07-26T12:25:39.752Z,4.20
2017-07-26T12:28:07.249Z,4.30
2017-07-26T12:30:34.745Z,5.13
2017-07-26T12:33:02.265Z,2.73
2017-07-26T12:35:29.769Z,2.87
2017-07-26T12:37:57.367Z,2.70
2017-07-26T12:40:25.631Z,2.20
2017-07-26T12:42:53.890Z,2.33
2017-07-26T12:45:21.410Z,1.60
2017-07-26T12:47:48.895Z,1.70
2017-07-26T12:50:16.473Z,1.30
2017-07-26T12:52:44.009Z,1.10
2017-07-26T12:55:11.501Z,1.10
2017-07-26T12:57:39.789Z,1.40
2017-07-26T13:00:08.050Z,0.87
2017-07-26T13:02:35.580Z,1.60
2017-07-26T13:05:03.150Z,1.20
2017-07-26T13:07:31.581Z,0.70
2017-07-26T13:09:59.109Z,0.53
2017-07-26T13:12:26.612Z,0.60
2017-07-26T13:14:54.140Z,0.70
2017-07-26T13:17:22.392Z,0.70
2017-07-26T13:19:49.911Z,0.60
2017-07-26T13:22:17.435Z,0.67
2017-07-26T13:24:45.706Z,0.50
2017-07-26T13:27:14.003Z,0.50
2017-07-26T13:29:41.582Z,0.60
2017-07-26T13:32:09.081Z,0.50
2017-07-26T13:34:36.930Z,0.60
2017-07-26T13:37:04.552Z,0.70
2017-07-26T13:39:32.057Z,0.60
2017-07-26T13:41:59.555Z,0.60
2017-07-26T13:44:27.841Z,0.60
2017-07-26T13:46:55.362Z,0.70
2017-07-26T13:49:22.892Z,0.60
2017-07-26T13:51:50.413Z,0.60
2017-07-26T13:54:18.688Z,0.70
2017-07-26T13:56:46.978Z,0.70
2017-07-26T13:59:14.534Z,0.80
2017-07-26T14:01:42.036Z,0.73
2017-07-26T14:04:09.550Z,0.60
2017-07-26T14:06:37.061Z,0.60
2017-07-26T14:09:04.607Z,0.67
2017-07-26T14:11:32.141Z,0.60
2017-07-26T14:13:59.652Z,1.00
2017-07-26T14:16:27.389Z,0.80
2017-07-26T14:18:54.908Z,0.90
2017-07-26T14:21:22.416Z,0.80
2017-07-26T14:23:49.946Z,0.90
2017-07-26T14:26:17.475Z,0.80
2017-07-26T14:28:45.746Z,0.80
2017-07-26T14:31:13.251Z,0.90
2017-07-26T14:33:40.806Z,1.10
2017-07-26T14:36:08.304Z,1.00
2017-07-26T14:38:35.819Z,0.80
2017-07-26T14:41:03.353Z,1.03
2017-07-26T14:43:31.614Z,1.20
2017-07-26T14:45:59.886Z,0.90
2017-07-26T14:48:27.506Z,1.20
2017-07-26T14:50:55.023Z,1.23
2017-07-26T14:53:23.318Z,0.93
2017-07-26T14:55:50.830Z,0.90
2017-07-26T14:58:18.320Z,1.20
2017-07-26T15:00:46.726Z,1.20
2017-07-26T15:03:14.250Z,1.70
2017-07-26T15:05:42.533Z,1.50
2017-07-26T15:08:10.852Z,1.70
2017-07-26T15:10:38.394Z,2.00
2017-07-26T15:13:05.920Z,1.30
2017-07-26T15:15:34.209Z,1.50
2017-07-26T15:18:02.467Z,1.10
2017-07-26T15:20:30.079Z,1.20
2017-07-26T15:22:57.597Z,1.50
2017-07-26T15:25:25.858Z,1.80
2017-07-26T15:27:53.357Z,1.43
2017-07-26T15:30:20.882Z,1.40
2017-07-26T15:32:48.381Z,1.60
2017-07-26T15:35:15.860Z,1.67
2017-07-26T15:37:43.386Z,1.77
2017-07-26T15:40:10.868Z,1.50
2017-07-26T15:42:38.702Z,1.73
2017-07-26T15:45:06.961Z,1.83
2017-07-26T15:47:35.221Z,1.50
2017-07-26T15:50:02.717Z,1.87
2017-07-26T15:52:30.991Z,2.07
2017-07-26T15:54:59.262Z,1.57
2017-07-26T15:57:27.536Z,1.37
2017-07-26T15:59:55.883Z,1.90
2017-07-26T16:02:23.638Z,2.47
2017-07-26T16:04:51.141Z,2.37
2017-07-26T16:07:19.423Z,2.37
2017-07-26T16:09:47.833Z,2.37
2017-07-26T16:12:15.347Z,2.77
2017-07-26T16:14:42.858Z,2.27
2017-07-26T16:28:31.645Z,5.50
2017-07-26T16:33:58.262Z,5.23
2017-07-26T16:36:24.392Z,4.00
2017-07-26T16:38:50.562Z,3.87
2017-07-26T16:41:17.423Z,4.87
2017-07-26T16:43:43.546Z,4.57
2017-07-26T16:48:35.790Z,3.58
2017-07-26T16:51:02.833Z,2.90
2017-07-26T16:53:29.683Z,2.90
2017-07-26T16:55:55.823Z,2.53
2017-07-26T16:58:21.944Z,2.93
2017-07-26T17:00:48.095Z,3.23
2017-07-26T17:03:14.219Z,3.10
2017-07-26T17:05:40.341Z,2.80
2017-07-26T17:08:06.488Z,2.50
2017-07-26T17:10:32.630Z,2.87
2017-07-26T17:12:58.763Z,2.90
2017-07-26T17:15:24.978Z,10.23
2017-07-26T17:17:51.107Z,2.70
2017-07-26T17:21:52.916Z,3.90
2017-07-26T17:24:19.950Z,5.60
2017-07-26T17:26:46.981Z,5.97
2017-07-26T17:29:13.191Z,6.60
2017-07-26T17:31:39.351Z,6.40
2017-07-26T17:34:05.450Z,7.17
2017-07-26T17:36:31.651Z,7.60
2017-07-26T17:38:57.877Z,7.23
2017-07-26T17:41:24.002Z,8.93
2017-07-26T17:43:50.113Z,8.70
2017-07-26T17:46:16.392Z,10.77
2017-07-26T17:48:42.579Z,10.23
2017-07-26T17:51:08.766Z,11.97
2017-07-26T17:53:34.912Z,11.30
2017-07-26T17:56:08.951Z,9.30
2017-07-26T17:58:35.301Z,11.80
2017-07-26T18:01:01.477Z,10.27
2017-07-26T18:03:29.434Z,10.87
2017-07-26T18:05:55.589Z,8.70
2017-07-26T18:08:21.780Z,8.10
2017-07-26T18:10:48.271Z,9.90
2017-07-26T18:13:14.440Z,8.90
2017-07-26T18:15:40.598Z,10.20
2017-07-26T18:18:07.517Z,10.83
2017-07-26T18:20:33.636Z,8.73
2017-07-26T18:22:59.800Z,10.00
2017-07-26T18:25:26.714Z,12.70
2017-07-26T18:27:52.848Z,10.70
2017-07-26T18:30:19.719Z,11.53
2017-07-26T18:32:46.628Z,11.80
2017-07-26T18:35:12.784Z,13.10
2017-07-26T18:37:39.803Z,11.07
2017-07-26T18:40:05.952Z,11.87
2017-07-26T18:42:32.862Z,14.43
2017-07-26T18:44:59.030Z,12.27
2017-07-26T18:47:25.895Z,14.20
2017-07-26T18:49:52.060Z,12.93
2017-07-26T18:52:18.264Z,13.37
2017-07-26T18:54:44.412Z,14.93
2017-07-26T18:57:10.598Z,17.20
2017-07-26T18:59:36.817Z,16.50
2017-07-26T19:02:03.106Z,16.00
2017-07-26T19:04:29.402Z,19.47
2017-07-26T19:06:55.609Z,16.63
2017-07-26T19:09:21.850Z,15.90
2017-07-26T19:11:48.116Z,15.20
2017-07-26T19:14:14.329Z,17.50
2017-07-26T19:16:41.518Z,14.80
2017-07-26T19:19:07.755Z,14.70
2017-07-26T19:21:33.945Z,14.70
2017-07-26T19:24:00.115Z,15.03
2017-07-26T19:26:27.076Z,14.40
2017-07-26T19:28:53.254Z,15.30
2017-07-26T19:31:34.409Z,14.83
2017-07-26T19:34:00.653Z,15.90
2017-07-26T19:36:30.219Z,15.40
2017-07-26T19:38:59.785Z,15.40
2017-07-26T19:41:29.416Z,14.50
2017-07-26T19:43:59.806Z,16.10
2017-07-26T19:46:29.418Z,14.93
2017-07-26T19:48:58.986Z,14.20
2017-07-26T19:51:28.290Z,13.83
2017-07-26T19:53:57.942Z,14.23
2017-07-26T19:56:27.507Z,13.60
2017-07-26T19:58:57.054Z,15.43
2017-07-26T20:01:26.274Z,11.93
2017-07-26T20:03:55.876Z,11.83
2017-07-26T20:06:25.420Z,13.00
2017-07-26T20:08:55.043Z,13.17
2017-07-26T20:11:24.584Z,11.30
2017-07-26T20:13:54.254Z,11.93
2017-07-26T20:16:23.834Z,11.27
2017-07-26T20:18:54.208Z,13.20
2017-07-26T20:21:23.429Z,13.00
2017-07-26T20:23:52.790Z,13.50
2017-07-26T20:26:22.463Z,13.40
2017-07-26T20:28:52.031Z,13.30
2017-07-26T20:31:21.609Z,14.50
2017-07-26T20:33:51.189Z,11.93
2017-07-26T20:36:21.566Z,13.10
2017-07-26T20:38:51.140Z,14.00
2017-07-26T20:41:21.447Z,14.20
2017-07-26T20:43:51.789Z,13.00
2017-07-26T20:46:20.993Z,13.70
2017-07-26T20:48:50.220Z,14.90
2017-07-26T20:51:20.625Z,13.93
2017-07-26T20:53:50.155Z,13.83
2017-07-26T20:56:19.716Z,14.70
2017-07-26T20:58:50.058Z,13.60
2017-07-26T21:01:19.602Z,14.90
2017-07-26T21:03:49.169Z,15.70
2017-07-26T21:06:18.896Z,14.03
2017-07-26T21:08:48.549Z,15.10
2017-07-26T21:11:18.127Z,17.87
2017-07-26T21:13:47.753Z,15.27
2017-07-26T21:16:17.307Z,13.37
2017-07-26T21:18:47.641Z,15.07
2017-07-26T21:21:17.255Z,12.90
2017-07-26T21:23:46.848Z,13.83
2017-07-26T21:26:16.372Z,14.23
2017-07-26T21:28:46.014Z,15.87
2017-07-26T21:31:15.599Z,14.73
2017-07-26T21:33:48.210Z,15.30
2017-07-26T21:36:17.788Z,14.60
2017-07-26T21:38:47.374Z,17.13
2017-07-26T21:41:16.925Z,15.60
2017-07-26T21:43:46.472Z,13.73
2017-07-26T21:46:16.861Z,14.80
2017-07-26T21:48:46.438Z,15.00
2017-07-26T21:51:15.639Z,15.57
2017-07-26T21:53:45.207Z,14.80
2017-07-26T21:56:15.726Z,15.73
2017-07-26T21:58:46.092Z,17.90
2017-07-26T22:01:15.706Z,13.10
2017-07-26T22:03:45.248Z,15.17
2017-07-26T22:06:14.443Z,14.50
2017-07-26T22:08:44.029Z,14.63
2017-07-26T22:11:13.591Z,16.13
2017-07-26T22:13:43.909Z,15.50
2017-07-26T22:16:14.212Z,16.50
2017-07-26T22:18:43.791Z,16.17
2017-07-26T22:21:13.338Z,15.27
2017-07-26T22:23:42.923Z,16.13
2017-07-26T22:26:12.468Z,17.03
2017-07-26T22:28:43.008Z,18.47
2017-07-26T22:31:13.327Z,21.17
2017-07-26T22:33:43.727Z,22.10
2017-07-26T22:36:13.330Z,21.43
2017-07-26T22:38:42.984Z,22.20
2017-07-26T22:41:12.550Z,23.80
2017-07-26T22:43:42.299Z,26.83
2017-07-26T22:46:11.880Z,29.67
2017-07-26T22:48:41.480Z,31.00
2017-07-26T22:51:11.050Z,32.90
2017-07-26T22:53:40.628Z,32.90
2017-07-26T22:56:10.158Z,34.60
2017-07-26T22:58:39.701Z,33.90
2017-07-26T23:01:09.280Z,41.37
2017-07-26T23:03:38.824Z,37.40
2017-07-26T23:06:08.391Z,39.27
2017-07-26T23:08:37.921Z,41.30
2017-07-26T23:11:07.831Z,38.90
2017-07-26T23:13:37.384Z,38.50
2017-07-26T23:16:07.713Z,34.53
2017-07-26T23:18:37.319Z,35.77
2017-07-26T23:21:06.872Z,38.50
2017-07-26T23:23:36.478Z,34.67
2017-07-26T23:26:06.012Z,37.07
2017-07-26T23:28:35.588Z,34.67
2017-07-26T23:31:05.168Z,34.17
2017-07-26T23:33:34.731Z,35.70
2017-07-26T23:36:04.309Z,35.73
2017-07-26T23:38:33.851Z,35.53
2017-07-26T23:41:03.219Z,30.67
2017-07-26T23:43:32.816Z,30.23
2017-07-26T23:46:02.365Z,30.97
2017-07-26T23:48:31.901Z,33.23
2017-07-26T23:51:01.476Z,31.30
2017-07-26T23:53:31.025Z,32.63
2017-07-26T23:56:00.595Z,32.97
2017-07-26T23:58:30.162Z,32.53
